sensor_id;sensor_type;location;lat;lon;timestamp;temperature;humidity
69595;DHT22;56800;52.142;5.364;2022-09-09T00:01:09;16.40;74.70
69595;DHT22;56800;52.142;5.364;2022-09-09T00:03:44;16.30;74.90
69595;DHT22;56800;52.142;5.364;2022-09-09T00:06:21;16.30;75.00
69595;DHT22;56800;52.142;5.364;2022-09-09T00:08:59;16.30;75.00
69595;DHT22;56800;52.142;5.364;2022-09-09T00:11:42;16.30;75.00
69595;DHT22;56800;52.142;5.364;2022-09-09T00:16:47;16.20;75.10
69595;DHT22;56800;52.142;5.364;2022-09-09T00:19:33;16.20;75.20
69595;DHT22;56800;52.142;5.364;2022-09-09T00:22:15;16.30;75.30
69595;DHT22;56800;52.142;5.364;2022-09-09T00:27:24;16.20;75.20
69595;DHT22;56800;52.142;5.364;2022-09-09T00:30:18;16.20;75.20
69595;DHT22;56800;52.142;5.364;2022-09-09T00:32:48;16.20;75.30
69595;DHT22;56800;52.142;5.364;2022-09-09T00:35:27;16.20;75.20
69595;DHT22;56800;52.142;5.364;2022-09-09T00:37:57;16.20;75.30
69595;DHT22;56800;52.142;5.364;2022-09-09T00:40:33;16.10;75.30
69595;DHT22;56800;52.142;5.364;2022-09-09T00:46:11;16.20;75.40
69595;DHT22;56800;52.142;5.364;2022-09-09T00:49:19;16.10;75.40
69595;DHT22;56800;52.142;5.364;2022-09-09T00:51:55;16.10;75.40
69595;DHT22;56800;52.142;5.364;2022-09-09T00:57:26;16.10;75.40
69595;DHT22;56800;52.142;5.364;2022-09-09T01:03:22;16.00;75.40
69595;DHT22;56800;52.142;5.364;2022-09-09T01:08:52;16.00;75.40
69595;DHT22;56800;52.142;5.364;2022-09-09T01:14:22;16.00;75.40
69595;DHT22;56800;52.142;5.364;2022-09-09T01:16:54;16.00;75.40
69595;DHT22;56800;52.142;5.364;2022-09-09T01:20:05;16.00;75.40
69595;DHT22;56800;52.142;5.364;2022-09-09T01:28:21;15.90;75.20
69595;DHT22;56800;52.142;5.364;2022-09-09T01:30:49;15.90;75.30
69595;DHT22;56800;52.142;5.364;2022-09-09T01:33:17;15.80;75.20
69595;DHT22;56800;52.142;5.364;2022-09-09T01:36:13;15.80;75.40
69595;DHT22;56800;52.142;5.364;2022-09-09T01:38:40;15.80;75.60
69595;DHT22;56800;52.142;5.364;2022-09-09T01:41:07;15.70;75.50
69595;DHT22;56800;52.142;5.364;2022-09-09T01:43:34;15.80;75.50
69595;DHT22;56800;52.142;5.364;2022-09-09T01:46:01;15.70;75.60
69595;DHT22;56800;52.142;5.364;2022-09-09T01:48:29;15.70;75.60
69595;DHT22;56800;52.142;5.364;2022-09-09T01:50:56;15.70;75.60
69595;DHT22;56800;52.142;5.364;2022-09-09T01:53:23;15.70;75.60
69595;DHT22;56800;52.142;5.364;2022-09-09T01:56:34;15.60;75.50
69595;DHT22;56800;52.142;5.364;2022-09-09T02:06:58;15.50;76.00
69595;DHT22;56800;52.142;5.364;2022-09-09T02:09:26;15.50;76.00
69595;DHT22;56800;52.142;5.364;2022-09-09T02:12:01;15.50;76.00
69595;DHT22;56800;52.142;5.364;2022-09-09T02:14:36;15.40;76.10
69595;DHT22;56800;52.142;5.364;2022-09-09T02:17:16;15.40;76.10
69595;DHT22;56800;52.142;5.364;2022-09-09T02:19:49;15.40;76.10
69595;DHT22;56800;52.142;5.364;2022-09-09T02:22:20;15.40;76.20
69595;DHT22;56800;52.142;5.364;2022-09-09T02:24:50;15.40;76.10
69595;DHT22;56800;52.142;5.364;2022-09-09T02:27:22;15.40;76.10
69595;DHT22;56800;52.142;5.364;2022-09-09T02:29:50;15.40;76.10
69595;DHT22;56800;52.142;5.364;2022-09-09T02:32:23;15.40;76.10
69595;DHT22;56800;52.142;5.364;2022-09-09T02:34:57;15.40;76.10
69595;DHT22;56800;52.142;5.364;2022-09-09T02:37:30;15.40;76.10
69595;DHT22;56800;52.142;5.364;2022-09-09T02:39:58;15.30;76.00
69595;DHT22;56800;52.142;5.364;2022-09-09T02:42:25;15.30;76.10
69595;DHT22;56800;52.142;5.364;2022-09-09T02:44:51;15.30;76.10
69595;DHT22;56800;52.142;5.364;2022-09-09T02:47:27;15.30;76.10
69595;DHT22;56800;52.142;5.364;2022-09-09T02:50:05;15.30;76.30
69595;DHT22;56800;52.142;5.364;2022-09-09T02:55:48;15.30;76.30
69595;DHT22;56800;52.142;5.364;2022-09-09T02:58:17;15.20;76.20
69595;DHT22;56800;52.142;5.364;2022-09-09T03:00:50;15.20;76.20
69595;DHT22;56800;52.142;5.364;2022-09-09T03:03:18;15.20;76.20
69595;DHT22;56800;52.142;5.364;2022-09-09T03:05:46;15.20;76.20
69595;DHT22;56800;52.142;5.364;2022-09-09T03:08:13;15.20;76.30
69595;DHT22;56800;52.142;5.364;2022-09-09T03:10:39;15.10;76.40
69595;DHT22;56800;52.142;5.364;2022-09-09T03:13:06;15.20;76.50
69595;DHT22;56800;52.142;5.364;2022-09-09T03:15:33;15.20;76.50
69595;DHT22;56800;52.142;5.364;2022-09-09T03:18:01;15.20;76.40
69595;DHT22;56800;52.142;5.364;2022-09-09T03:20:29;15.20;76.40
69595;DHT22;56800;52.142;5.364;2022-09-09T03:22:56;15.10;76.40
69595;DHT22;56800;52.142;5.364;2022-09-09T03:25:23;15.10;76.40
69595;DHT22;56800;52.142;5.364;2022-09-09T03:27:50;15.10;76.50
69595;DHT22;56800;52.142;5.364;2022-09-09T03:30:25;15.10;76.50
69595;DHT22;56800;52.142;5.364;2022-09-09T03:32:55;15.10;76.60
69595;DHT22;56800;52.142;5.364;2022-09-09T03:35:22;15.10;76.50
69595;DHT22;56800;52.142;5.364;2022-09-09T03:37:53;15.10;76.60
69595;DHT22;56800;52.142;5.364;2022-09-09T03:40:22;15.00;76.50
69595;DHT22;56800;52.142;5.364;2022-09-09T03:42:51;15.00;76.50
69595;DHT22;56800;52.142;5.364;2022-09-09T03:45:18;15.00;76.60
69595;DHT22;56800;52.142;5.364;2022-09-09T03:47:45;15.00;76.60
69595;DHT22;56800;52.142;5.364;2022-09-09T03:50:19;15.00;76.60
69595;DHT22;56800;52.142;5.364;2022-09-09T03:52:45;15.00;76.70
69595;DHT22;56800;52.142;5.364;2022-09-09T03:55:13;14.90;76.70
69595;DHT22;56800;52.142;5.364;2022-09-09T03:57:40;14.90;76.70
69595;DHT22;56800;52.142;5.364;2022-09-09T04:00:07;14.90;76.70
69595;DHT22;56800;52.142;5.364;2022-09-09T04:02:34;14.90;76.70
69595;DHT22;56800;52.142;5.364;2022-09-09T04:05:01;14.90;76.70
69595;DHT22;56800;52.142;5.364;2022-09-09T04:07:28;14.90;76.70
69595;DHT22;56800;52.142;5.364;2022-09-09T04:09:54;14.90;76.60
69595;DHT22;56800;52.142;5.364;2022-09-09T04:12:22;14.90;76.60
69595;DHT22;56800;52.142;5.364;2022-09-09T04:14:49;14.90;76.60
69595;DHT22;56800;52.142;5.364;2022-09-09T04:17:15;14.90;76.70
69595;DHT22;56800;52.142;5.364;2022-09-09T04:19:43;14.90;76.60
69595;DHT22;56800;52.142;5.364;2022-09-09T04:22:10;14.90;76.60
69595;DHT22;56800;52.142;5.364;2022-09-09T04:24:37;14.90;76.70
69595;DHT22;56800;52.142;5.364;2022-09-09T04:27:03;14.90;76.70
69595;DHT22;56800;52.142;5.364;2022-09-09T04:29:30;14.80;76.70
69595;DHT22;56800;52.142;5.364;2022-09-09T04:31:57;14.80;76.80
69595;DHT22;56800;52.142;5.364;2022-09-09T04:34:24;14.80;76.90
69595;DHT22;56800;52.142;5.364;2022-09-09T04:36:51;14.80;77.00
69595;DHT22;56800;52.142;5.364;2022-09-09T04:39:18;14.80;77.00
69595;DHT22;56800;52.142;5.364;2022-09-09T04:41:46;14.80;77.10
69595;DHT22;56800;52.142;5.364;2022-09-09T04:44:13;14.80;77.10
69595;DHT22;56800;52.142;5.364;2022-09-09T04:46:40;14.90;77.10
69595;DHT22;56800;52.142;5.364;2022-09-09T04:49:07;14.80;77.10
69595;DHT22;56800;52.142;5.364;2022-09-09T04:51:40;14.80;77.20
69595;DHT22;56800;52.142;5.364;2022-09-09T04:54:07;14.80;77.20
69595;DHT22;56800;52.142;5.364;2022-09-09T04:56:33;14.80;77.20
69595;DHT22;56800;52.142;5.364;2022-09-09T04:59:00;14.80;77.20
69595;DHT22;56800;52.142;5.364;2022-09-09T05:01:29;14.80;77.20
69595;DHT22;56800;52.142;5.364;2022-09-09T05:03:56;14.80;77.20
69595;DHT22;56800;52.142;5.364;2022-09-09T05:06:23;14.80;77.20
69595;DHT22;56800;52.142;5.364;2022-09-09T05:08:50;14.80;77.20
69595;DHT22;56800;52.142;5.364;2022-09-09T05:11:19;14.90;77.30
69595;DHT22;56800;52.142;5.364;2022-09-09T05:13:47;14.80;77.30
69595;DHT22;56800;52.142;5.364;2022-09-09T05:16:17;14.80;77.30
69595;DHT22;56800;52.142;5.364;2022-09-09T05:18:44;14.90;77.40
69595;DHT22;56800;52.142;5.364;2022-09-09T05:21:17;14.80;77.30
69595;DHT22;56800;52.142;5.364;2022-09-09T05:23:45;14.90;77.40
69595;DHT22;56800;52.142;5.364;2022-09-09T05:26:16;14.90;77.40
69595;DHT22;56800;52.142;5.364;2022-09-09T05:28:44;14.90;77.30
69595;DHT22;56800;52.142;5.364;2022-09-09T05:31:12;14.90;77.30
69595;DHT22;56800;52.142;5.364;2022-09-09T05:33:40;14.90;77.30
69595;DHT22;56800;52.142;5.364;2022-09-09T05:36:11;14.90;77.40
69595;DHT22;56800;52.142;5.364;2022-09-09T05:38:40;14.90;77.50
69595;DHT22;56800;52.142;5.364;2022-09-09T05:41:07;14.90;77.50
69595;DHT22;56800;52.142;5.364;2022-09-09T05:43:34;14.90;77.50
69595;DHT22;56800;52.142;5.364;2022-09-09T05:46:07;14.90;77.50
69595;DHT22;56800;52.142;5.364;2022-09-09T05:48:38;14.90;77.50
69595;DHT22;56800;52.142;5.364;2022-09-09T05:51:07;14.90;77.50
69595;DHT22;56800;52.142;5.364;2022-09-09T05:53:34;14.90;77.60
69595;DHT22;56800;52.142;5.364;2022-09-09T05:56:07;15.00;77.70
69595;DHT22;56800;52.142;5.364;2022-09-09T05:58:34;14.90;77.70
69595;DHT22;56800;52.142;5.364;2022-09-09T06:01:21;15.00;77.80
69595;DHT22;56800;52.142;5.364;2022-09-09T06:03:50;15.00;77.80
69595;DHT22;56800;52.142;5.364;2022-09-09T06:06:19;15.00;77.80
69595;DHT22;56800;52.142;5.364;2022-09-09T06:08:51;15.00;77.90
69595;DHT22;56800;52.142;5.364;2022-09-09T06:11:20;15.00;77.90
69595;DHT22;56800;52.142;5.364;2022-09-09T06:13:47;15.00;78.00
69595;DHT22;56800;52.142;5.364;2022-09-09T06:16:18;15.00;78.10
69595;DHT22;56800;52.142;5.364;2022-09-09T06:18:45;15.10;78.10
69595;DHT22;56800;52.142;5.364;2022-09-09T06:21:16;15.10;78.30
69595;DHT22;56800;52.142;5.364;2022-09-09T06:23:43;15.10;78.30
69595;DHT22;56800;52.142;5.364;2022-09-09T06:26:15;15.20;78.20
69595;DHT22;56800;52.142;5.364;2022-09-09T06:28:47;15.20;78.30
69595;DHT22;56800;52.142;5.364;2022-09-09T06:31:16;15.20;78.40
69595;DHT22;56800;52.142;5.364;2022-09-09T06:33:55;15.20;78.50
69595;DHT22;56800;52.142;5.364;2022-09-09T06:36:24;15.30;78.70
69595;DHT22;56800;52.142;5.364;2022-09-09T06:38:51;15.30;78.80
69595;DHT22;56800;52.142;5.364;2022-09-09T06:41:20;15.30;78.80
69595;DHT22;56800;52.142;5.364;2022-09-09T06:43:47;15.40;79.10
69595;DHT22;56800;52.142;5.364;2022-09-09T06:46:22;15.40;79.10
69595;DHT22;56800;52.142;5.364;2022-09-09T06:48:51;15.50;79.20
69595;DHT22;56800;52.142;5.364;2022-09-09T06:51:20;15.60;79.30
69595;DHT22;56800;52.142;5.364;2022-09-09T06:53:51;15.60;79.40
69595;DHT22;56800;52.142;5.364;2022-09-09T06:56:23;15.60;79.30
69595;DHT22;56800;52.142;5.364;2022-09-09T06:58:52;15.70;79.30
69595;DHT22;56800;52.142;5.364;2022-09-09T07:01:23;15.70;79.40
69595;DHT22;56800;52.142;5.364;2022-09-09T07:03:52;15.80;79.50
69595;DHT22;56800;52.142;5.364;2022-09-09T07:06:22;15.90;79.60
69595;DHT22;56800;52.142;5.364;2022-09-09T07:08:58;15.90;79.50
69595;DHT22;56800;52.142;5.364;2022-09-09T07:11:27;16.00;79.50
69595;DHT22;56800;52.142;5.364;2022-09-09T07:13:57;16.10;79.50
69595;DHT22;56800;52.142;5.364;2022-09-09T07:16:24;16.10;79.40
69595;DHT22;56800;52.142;5.364;2022-09-09T07:18:52;16.20;79.30
69595;DHT22;56800;52.142;5.364;2022-09-09T07:21:19;16.20;79.40
69595;DHT22;56800;52.142;5.364;2022-09-09T07:23:47;16.20;79.30
69595;DHT22;56800;52.142;5.364;2022-09-09T07:26:16;16.20;79.30
69595;DHT22;56800;52.142;5.364;2022-09-09T07:28:43;16.20;79.30
69595;DHT22;56800;52.142;5.364;2022-09-09T07:31:26;16.30;79.30
69595;DHT22;56800;52.142;5.364;2022-09-09T07:34:08;16.30;79.20
69595;DHT22;56800;52.142;5.364;2022-09-09T07:36:39;16.30;79.10
69595;DHT22;56800;52.142;5.364;2022-09-09T07:39:11;16.40;79.10
69595;DHT22;56800;52.142;5.364;2022-09-09T07:41:44;16.40;80.00
69595;DHT22;56800;52.142;5.364;2022-09-09T07:44:17;16.50;79.40
69595;DHT22;56800;52.142;5.364;2022-09-09T07:46:45;16.60;79.10
69595;DHT22;56800;52.142;5.364;2022-09-09T07:49:12;16.60;78.90
69595;DHT22;56800;52.142;5.364;2022-09-09T07:51:41;16.70;78.90
69595;DHT22;56800;52.142;5.364;2022-09-09T07:54:44;16.70;78.80
69595;DHT22;56800;52.142;5.364;2022-09-09T07:57:12;16.80;78.70
69595;DHT22;56800;52.142;5.364;2022-09-09T07:59:38;16.90;78.50
69595;DHT22;56800;52.142;5.364;2022-09-09T08:02:06;16.90;78.30
69595;DHT22;56800;52.142;5.364;2022-09-09T08:04:33;16.90;78.10
69595;DHT22;56800;52.142;5.364;2022-09-09T08:07:01;17.00;78.00
69595;DHT22;56800;52.142;5.364;2022-09-09T08:09:29;17.00;77.90
69595;DHT22;56800;52.142;5.364;2022-09-09T08:11:56;17.00;77.70
69595;DHT22;56800;52.142;5.364;2022-09-09T08:14:24;17.00;77.70
69595;DHT22;56800;52.142;5.364;2022-09-09T08:16:51;17.00;77.70
69595;DHT22;56800;52.142;5.364;2022-09-09T08:19:20;17.10;77.70
69595;DHT22;56800;52.142;5.364;2022-09-09T08:21:47;17.10;77.50
69595;DHT22;56800;52.142;5.364;2022-09-09T08:24:15;17.10;77.30
69595;DHT22;56800;52.142;5.364;2022-09-09T08:26:44;17.00;77.00
69595;DHT22;56800;52.142;5.364;2022-09-09T08:29:12;17.10;77.10
69595;DHT22;56800;52.142;5.364;2022-09-09T08:31:45;17.00;77.10
69595;DHT22;56800;52.142;5.364;2022-09-09T08:34:13;17.00;77.10
69595;DHT22;56800;52.142;5.364;2022-09-09T08:36:43;17.00;77.10
69595;DHT22;56800;52.142;5.364;2022-09-09T08:39:12;17.00;77.00
69595;DHT22;56800;52.142;5.364;2022-09-09T08:50:20;17.10;76.90
69595;DHT22;56800;52.142;5.364;2022-09-09T08:52:55;17.10;76.80
69595;DHT22;56800;52.142;5.364;2022-09-09T08:58:47;17.20;77.10
69595;DHT22;56800;52.142;5.364;2022-09-09T09:01:17;17.20;77.10
69595;DHT22;56800;52.142;5.364;2022-09-09T09:09:51;17.30;76.70
69595;DHT22;56800;52.142;5.364;2022-09-09T09:12:24;17.30;76.50
69595;DHT22;56800;52.142;5.364;2022-09-09T09:14:52;17.30;76.30
69595;DHT22;56800;52.142;5.364;2022-09-09T09:17:25;17.30;76.30
69595;DHT22;56800;52.142;5.364;2022-09-09T09:19:53;17.20;76.20
69595;DHT22;56800;52.142;5.364;2022-09-09T09:25:15;17.20;76.30
69595;DHT22;56800;52.142;5.364;2022-09-09T09:27:59;17.20;76.20
69595;DHT22;56800;52.142;5.364;2022-09-09T09:30:37;17.20;76.20
69595;DHT22;56800;52.142;5.364;2022-09-09T09:33:17;17.20;75.90
69595;DHT22;56800;52.142;5.364;2022-09-09T09:35:49;17.20;76.00
69595;DHT22;56800;52.142;5.364;2022-09-09T09:38:27;17.20;75.80
69595;DHT22;56800;52.142;5.364;2022-09-09T09:41:14;17.20;75.80
69595;DHT22;56800;52.142;5.364;2022-09-09T09:43:41;17.20;75.80
69595;DHT22;56800;52.142;5.364;2022-09-09T09:46:22;17.30;75.70
69595;DHT22;56800;52.142;5.364;2022-09-09T09:49:04;17.30;75.80
69595;DHT22;56800;52.142;5.364;2022-09-09T09:51:32;17.30;75.70
69595;DHT22;56800;52.142;5.364;2022-09-09T09:56:40;17.30;75.40
69595;DHT22;56800;52.142;5.364;2022-09-09T09:59:20;17.30;75.20
69595;DHT22;56800;52.142;5.364;2022-09-09T10:02:16;17.30;75.50
69595;DHT22;56800;52.142;5.364;2022-09-09T10:04:43;17.30;75.30
69595;DHT22;56800;52.142;5.364;2022-09-09T10:07:21;17.30;75.50
69595;DHT22;56800;52.142;5.364;2022-09-09T10:09:53;17.30;75.80
69595;DHT22;56800;52.142;5.364;2022-09-09T10:12:43;17.30;76.10
69595;DHT22;56800;52.142;5.364;2022-09-09T10:15:41;17.40;76.10
69595;DHT22;56800;52.142;5.364;2022-09-09T10:18:33;17.40;76.10
69595;DHT22;56800;52.142;5.364;2022-09-09T10:23:54;17.40;76.20
69595;DHT22;56800;52.142;5.364;2022-09-09T10:34:47;17.40;75.60
69595;DHT22;56800;52.142;5.364;2022-09-09T10:37:54;17.40;75.60
69595;DHT22;56800;52.142;5.364;2022-09-09T10:40:38;17.30;75.80
69595;DHT22;56800;52.142;5.364;2022-09-09T10:49:10;17.40;76.30
69595;DHT22;56800;52.142;5.364;2022-09-09T10:57:46;17.40;76.60
69595;DHT22;56800;52.142;5.364;2022-09-09T11:00:22;17.40;76.60
69595;DHT22;56800;52.142;5.364;2022-09-09T11:02:58;17.40;76.50
69595;DHT22;56800;52.142;5.364;2022-09-09T11:05:36;17.40;76.70
69595;DHT22;56800;52.142;5.364;2022-09-09T11:08:18;17.40;76.90
69595;DHT22;56800;52.142;5.364;2022-09-09T11:13:26;17.60;77.50
69595;DHT22;56800;52.142;5.364;2022-09-09T11:19:02;17.90;77.20
69595;DHT22;56800;52.142;5.364;2022-09-09T11:21:41;18.00;76.80
69595;DHT22;56800;52.142;5.364;2022-09-09T11:24:23;18.00;76.50
69595;DHT22;56800;52.142;5.364;2022-09-09T11:27:10;18.10;76.50
69595;DHT22;56800;52.142;5.364;2022-09-09T11:30:04;18.10;76.30
69595;DHT22;56800;52.142;5.364;2022-09-09T11:35:26;18.00;75.70
69595;DHT22;56800;52.142;5.364;2022-09-09T11:38:20;17.90;75.80
69595;DHT22;56800;52.142;5.364;2022-09-09T11:40:58;17.90;75.70
69595;DHT22;56800;52.142;5.364;2022-09-09T11:43:32;18.00;75.70
69595;DHT22;56800;52.142;5.364;2022-09-09T11:46:01;18.00;76.00
69595;DHT22;56800;52.142;5.364;2022-09-09T11:48:40;18.00;75.90
69595;DHT22;56800;52.142;5.364;2022-09-09T11:56:44;18.10;74.80
69595;DHT22;56800;52.142;5.364;2022-09-09T12:02:13;18.10;75.20
69595;DHT22;56800;52.142;5.364;2022-09-09T12:05:09;18.10;75.50
69595;DHT22;56800;52.142;5.364;2022-09-09T12:07:41;18.10;75.50
69595;DHT22;56800;52.142;5.364;2022-09-09T12:10:31;18.20;75.70
69595;DHT22;56800;52.142;5.364;2022-09-09T12:13:17;18.20;75.60
69595;DHT22;56800;52.142;5.364;2022-09-09T12:15:50;18.30;75.60
69595;DHT22;56800;52.142;5.364;2022-09-09T12:18:38;18.30;75.60
69595;DHT22;56800;52.142;5.364;2022-09-09T12:21:27;18.20;75.10
69595;DHT22;56800;52.142;5.364;2022-09-09T12:24:09;18.20;75.30
69595;DHT22;56800;52.142;5.364;2022-09-09T12:26:50;18.10;75.40
69595;DHT22;56800;52.142;5.364;2022-09-09T12:32:26;18.10;75.50
69595;DHT22;56800;52.142;5.364;2022-09-09T12:35:20;18.00;75.70
69595;DHT22;56800;52.142;5.364;2022-09-09T12:37:52;18.10;76.10
69595;DHT22;56800;52.142;5.364;2022-09-09T12:40:31;18.10;76.40
69595;DHT22;56800;52.142;5.364;2022-09-09T12:43:02;18.10;76.30
69595;DHT22;56800;52.142;5.364;2022-09-09T12:45:42;18.20;76.20
69595;DHT22;56800;52.142;5.364;2022-09-09T12:48:10;18.20;76.20
69595;DHT22;56800;52.142;5.364;2022-09-09T12:53:36;18.20;75.80
69595;DHT22;56800;52.142;5.364;2022-09-09T12:56:06;18.30;75.80
69595;DHT22;56800;52.142;5.364;2022-09-09T12:58:36;18.20;76.00
69595;DHT22;56800;52.142;5.364;2022-09-09T13:01:05;18.20;76.10
69595;DHT22;56800;52.142;5.364;2022-09-09T13:03:41;18.20;76.20
69595;DHT22;56800;52.142;5.364;2022-09-09T13:06:18;18.30;76.00
69595;DHT22;56800;52.142;5.364;2022-09-09T13:08:46;18.30;76.00
69595;DHT22;56800;52.142;5.364;2022-09-09T13:11:37;18.40;75.90
69595;DHT22;56800;52.142;5.364;2022-09-09T13:14:06;18.60;75.90
69595;DHT22;56800;52.142;5.364;2022-09-09T13:16:34;18.80;75.70
69595;DHT22;56800;52.142;5.364;2022-09-09T13:19:09;18.80;75.80
69595;DHT22;56800;52.142;5.364;2022-09-09T13:21:38;18.90;74.30
69595;DHT22;56800;52.142;5.364;2022-09-09T13:24:07;18.90;74.00
69595;DHT22;56800;52.142;5.364;2022-09-09T13:27:40;18.80;73.40
69595;DHT22;56800;52.142;5.364;2022-09-09T13:29:54;18.80;73.50
69595;DHT22;56800;52.142;5.364;2022-09-09T13:32:25;18.80;73.40
69595;DHT22;56800;52.142;5.364;2022-09-09T13:35:00;18.80;73.40
69595;DHT22;56800;52.142;5.364;2022-09-09T13:39:54;18.70;73.30
69595;DHT22;56800;52.142;5.364;2022-09-09T13:42:27;18.70;73.60
69595;DHT22;56800;52.142;5.364;2022-09-09T13:44:55;18.70;73.70
69595;DHT22;56800;52.142;5.364;2022-09-09T13:47:31;18.60;73.80
69595;DHT22;56800;52.142;5.364;2022-09-09T13:50:09;18.70;74.00
69595;DHT22;56800;52.142;5.364;2022-09-09T13:52:35;18.70;74.00
69595;DHT22;56800;52.142;5.364;2022-09-09T13:55:02;18.80;73.90
69595;DHT22;56800;52.142;5.364;2022-09-09T13:57:29;18.70;73.50
69595;DHT22;56800;52.142;5.364;2022-09-09T13:59:55;18.80;73.60
69595;DHT22;56800;52.142;5.364;2022-09-09T14:02:32;18.80;73.50
69595;DHT22;56800;52.142;5.364;2022-09-09T14:04:59;18.70;73.40
69595;DHT22;56800;52.142;5.364;2022-09-09T14:07:25;18.70;73.30
69595;DHT22;56800;52.142;5.364;2022-09-09T14:09:52;18.80;73.50
69595;DHT22;56800;52.142;5.364;2022-09-09T14:12:18;18.80;73.40
69595;DHT22;56800;52.142;5.364;2022-09-09T14:14:46;18.70;73.20
69595;DHT22;56800;52.142;5.364;2022-09-09T14:17:13;18.70;73.20
69595;DHT22;56800;52.142;5.364;2022-09-09T14:19:40;18.70;73.20
69595;DHT22;56800;52.142;5.364;2022-09-09T14:22:07;18.70;73.40
69595;DHT22;56800;52.142;5.364;2022-09-09T14:24:34;18.70;73.70
69595;DHT22;56800;52.142;5.364;2022-09-09T14:27:00;18.70;73.90
69595;DHT22;56800;52.142;5.364;2022-09-09T14:29:27;18.70;73.70
69595;DHT22;56800;52.142;5.364;2022-09-09T14:31:54;18.70;73.60
69595;DHT22;56800;52.142;5.364;2022-09-09T14:34:21;18.70;73.70
69595;DHT22;56800;52.142;5.364;2022-09-09T14:36:47;18.70;73.80
69595;DHT22;56800;52.142;5.364;2022-09-09T14:39:14;18.70;74.00
69595;DHT22;56800;52.142;5.364;2022-09-09T14:41:41;18.60;74.10
69595;DHT22;56800;52.142;5.364;2022-09-09T14:44:08;18.60;74.40
69595;DHT22;56800;52.142;5.364;2022-09-09T14:46:34;18.60;74.40
69595;DHT22;56800;52.142;5.364;2022-09-09T14:49:01;18.50;74.70
69595;DHT22;56800;52.142;5.364;2022-09-09T14:51:28;18.50;74.80
69595;DHT22;56800;52.142;5.364;2022-09-09T14:53:58;18.50;74.90
69595;DHT22;56800;52.142;5.364;2022-09-09T14:56:27;18.50;75.20
69595;DHT22;56800;52.142;5.364;2022-09-09T14:58:55;18.40;75.40
69595;DHT22;56800;52.142;5.364;2022-09-09T15:01:22;18.50;75.90
69595;DHT22;56800;52.142;5.364;2022-09-09T15:03:51;18.60;76.30
69595;DHT22;56800;52.142;5.364;2022-09-09T15:06:19;18.70;76.40
69595;DHT22;56800;52.142;5.364;2022-09-09T15:08:47;18.80;76.20
69595;DHT22;56800;52.142;5.364;2022-09-09T15:11:14;18.90;76.10
69595;DHT22;56800;52.142;5.364;2022-09-09T15:13:42;19.00;75.90
69595;DHT22;56800;52.142;5.364;2022-09-09T15:16:14;19.00;75.80
69595;DHT22;56800;52.142;5.364;2022-09-09T15:18:42;19.00;75.40
69595;DHT22;56800;52.142;5.364;2022-09-09T15:21:17;19.10;75.60
69595;DHT22;56800;52.142;5.364;2022-09-09T15:23:48;19.10;75.20
69595;DHT22;56800;52.142;5.364;2022-09-09T15:26:15;19.00;74.70
69595;DHT22;56800;52.142;5.364;2022-09-09T15:28:43;19.00;74.60
69595;DHT22;56800;52.142;5.364;2022-09-09T15:31:47;19.00;74.30
69595;DHT22;56800;52.142;5.364;2022-09-09T15:34:16;19.00;74.30
69595;DHT22;56800;52.142;5.364;2022-09-09T15:36:46;19.00;74.20
69595;DHT22;56800;52.142;5.364;2022-09-09T15:39:15;18.90;74.00
69595;DHT22;56800;52.142;5.364;2022-09-09T15:41:43;18.90;73.80
69595;DHT22;56800;52.142;5.364;2022-09-09T15:44:11;18.80;73.60
69595;DHT22;56800;52.142;5.364;2022-09-09T15:46:46;18.80;73.70
69595;DHT22;56800;52.142;5.364;2022-09-09T15:49:20;18.80;73.80
69595;DHT22;56800;52.142;5.364;2022-09-09T15:51:57;18.80;74.60
69595;DHT22;56800;52.142;5.364;2022-09-09T15:54:25;18.70;73.80
69595;DHT22;56800;52.142;5.364;2022-09-09T15:56:57;18.70;73.90
69595;DHT22;56800;52.142;5.364;2022-09-09T15:59:31;18.70;74.10
69595;DHT22;56800;52.142;5.364;2022-09-09T16:02:09;18.70;74.10
69595;DHT22;56800;52.142;5.364;2022-09-09T16:04:36;18.70;74.00
69595;DHT22;56800;52.142;5.364;2022-09-09T16:07:05;18.70;74.10
69595;DHT22;56800;52.142;5.364;2022-09-09T16:09:33;18.70;74.00
69595;DHT22;56800;52.142;5.364;2022-09-09T16:12:01;18.80;73.60
69595;DHT22;56800;52.142;5.364;2022-09-09T16:14:28;18.80;73.50
69595;DHT22;56800;52.142;5.364;2022-09-09T16:16:56;18.70;73.40
69595;DHT22;56800;52.142;5.364;2022-09-09T16:19:23;18.80;73.40
69595;DHT22;56800;52.142;5.364;2022-09-09T16:21:51;18.80;73.50
69595;DHT22;56800;52.142;5.364;2022-09-09T16:24:19;18.80;73.30
69595;DHT22;56800;52.142;5.364;2022-09-09T16:27:00;18.80;73.20
69595;DHT22;56800;52.142;5.364;2022-09-09T16:29:28;18.80;73.10
69595;DHT22;56800;52.142;5.364;2022-09-09T16:31:55;18.80;73.00
69595;DHT22;56800;52.142;5.364;2022-09-09T16:34:28;18.80;72.90
69595;DHT22;56800;52.142;5.364;2022-09-09T16:36:55;18.80;72.60
69595;DHT22;56800;52.142;5.364;2022-09-09T16:39:22;18.70;72.60
69595;DHT22;56800;52.142;5.364;2022-09-09T16:41:49;18.70;72.70
69595;DHT22;56800;52.142;5.364;2022-09-09T16:44:17;18.70;72.60
69595;DHT22;56800;52.142;5.364;2022-09-09T16:46:46;18.60;72.50
69595;DHT22;56800;52.142;5.364;2022-09-09T16:49:15;18.60;72.60
69595;DHT22;56800;52.142;5.364;2022-09-09T16:51:50;18.60;72.70
69595;DHT22;56800;52.142;5.364;2022-09-09T16:54:28;18.60;72.70
69595;DHT22;56800;52.142;5.364;2022-09-09T16:56:57;18.60;72.60
69595;DHT22;56800;52.142;5.364;2022-09-09T16:59:25;18.60;72.70
69595;DHT22;56800;52.142;5.364;2022-09-09T17:01:53;18.60;72.50
69595;DHT22;56800;52.142;5.364;2022-09-09T17:04:27;18.60;72.60
69595;DHT22;56800;52.142;5.364;2022-09-09T17:06:55;18.50;72.70
69595;DHT22;56800;52.142;5.364;2022-09-09T17:09:26;18.50;72.80
69595;DHT22;56800;52.142;5.364;2022-09-09T17:11:57;18.40;72.80
69595;DHT22;56800;52.142;5.364;2022-09-09T17:14:29;18.40;73.10
69595;DHT22;56800;52.142;5.364;2022-09-09T17:16:57;18.40;73.20
69595;DHT22;56800;52.142;5.364;2022-09-09T17:19:44;18.40;73.30
69595;DHT22;56800;52.142;5.364;2022-09-09T17:22:10;18.40;74.20
69595;DHT22;56800;52.142;5.364;2022-09-09T17:24:43;18.30;73.50
69595;DHT22;56800;52.142;5.364;2022-09-09T17:27:13;18.30;73.50
69595;DHT22;56800;52.142;5.364;2022-09-09T17:29:40;18.30;73.60
69595;DHT22;56800;52.142;5.364;2022-09-09T17:32:33;18.30;73.70
69595;DHT22;56800;52.142;5.364;2022-09-09T17:35:12;18.30;73.70
69595;DHT22;56800;52.142;5.364;2022-09-09T17:37:39;18.30;73.80
69595;DHT22;56800;52.142;5.364;2022-09-09T17:40:09;18.30;73.80
69595;DHT22;56800;52.142;5.364;2022-09-09T17:42:37;18.20;73.70
69595;DHT22;56800;52.142;5.364;2022-09-09T17:45:04;18.20;73.80
69595;DHT22;56800;52.142;5.364;2022-09-09T17:47:38;18.20;73.80
69595;DHT22;56800;52.142;5.364;2022-09-09T17:50:05;18.20;73.90